map of DFW home
DFW - Airport
Location
City:  Dallas-Fort Worth, Texas, United States
Name:Dallas-Fort Worth International Airport
ICAO:KDFW
IATA:DFW
FAA LID:DFW

Details
Type:Airport (Part 139 Class I)
Use:Public/Civil, International (customs port of entry)
Latitude:3253'50"N (32.897232)
Longitude:9702'16"W (-97.037694)
Datum:WGS 1984
Elevation:607 ft (185 m)
Variation:3.33E (WMM2015 magnetic declination)
-0.11 annual change
Runways:7
Longest:13401 × 200 ft (4085 × 61 m), paved

Time
Time Zone:UTC-6 (DST-5)
Local Time:

Weather
METAR:KDFW 161653Z 25005KT 10SM FEW300 17/01 A3014 RMK AO2 SLP201 T01720011
TAF:KDFW 161722Z 1618/1724 21008KT P6SM SCT300= TAF KSNY 161720Z 1618/1718 27010KT P6SM SKC
FM162100 33015G23KT P6SM FEW200
FM170300 12015G23KT P6SM SCT120
FM170600 19015G24KT P6SM BKN025
FM171100 03011KT P6SM VCSH OVC015

Related Locations
Nearby:
Farthest:RRG: 10930 mi / 17589 km
Plaine Corail [Sir Gatan Duval Airport (Plaine Corail Airport)], Rodrigues Island, MU

Find:

   beyond  
but within

Other Information
Maps:
Delays:
NOTAMs:
Links:
Sources:

  
  • flag of United States
  • flag of Texas
  

Airport Diagram

Airport diagram for DFW

Airport diagram PDF

Sectional Chart

Flight Planning
at skyvector.com

Satellite Image

Google Maps Satellite view

 

Copyright © 2004-2018 Karl L. Swartz. All rights reserved.
The Great Circle Mapper name and logo are trademarks of the Great Circle Mapper.
All other trademarks mentioned herein belong to their respective owners.
Please see credits for attibutions and further copyright information.

  Follow gcmap on Facebook Follow gcmap on Twitter Follow gcmap on Google+ GCmap on LinkedIn

hCard Microformat

Geo Microformat